latitud = 43° 31' 23''N | Longitud = 005° 37' 16''W

Estación Meteorológica de Gijón Surf Gijón - Asturias
26 metros sobre el nivel del mar | 85,3018 feet above sea level

Surf en Gijón

Una variedad de surf de pie es el paddle board. Otra forma importante de surfear es el body board, cuando un surfista monta una ola en un bodyboard, ya sea acostado sobre su vientre, cayendo de rodillas o, a veces, incluso de pie sobre una tabla de bodyboard. Otros tipos de surf incluyen kneeboard, surf matting (montar colchonetas inflables) y el uso de láminas. El surf corporal, en el que la ola se navega sin una tabla, es muy común que el surfista utilice el propio cuerpo del surfista, y algunos lo consideran la forma más pura de surfear.

Fecha, hora, temperatura, dirección y velocidad del viento, humedad y presión.

  • 19-01-2019 08:00:00 | 7.80°C | Norte |3.00 km/h | 92.00% | 1008.80 hPa
  • 19-01-2019 07:00:00 | 7.70°C | Norte |4.00 km/h | 89.00% | 1009.40 hPa
  • 19-01-2019 06:00:00 | 7.90°C | Norte |2.00 km/h | 88.00% | 1010.00 hPa
  • 19-01-2019 05:00:00 | 8.20°C | Sur |3.00 km/h | 83.00% | 1010.70 hPa
  • 19-01-2019 04:00:00 | 9.00°C | Sur |6.00 km/h | 81.00% | 1011.50 hPa
  • 19-01-2019 03:00:00 | 10.00°C | Sudoeste |9.00 km/h | 78.00% | 1012.00 hPa
  • 19-01-2019 02:00:00 | 9.80°C | Sudoeste |6.00 km/h | 83.00% | 1012.40 hPa
  • 19-01-2019 01:00:00 | 9.00°C | Sur |8.00 km/h | 91.00% | 1012.90 hPa
  • 19-01-2019 00:00:00 | 9.10°C | Sudoeste |3.00 km/h | 92.00% | 1013.50 hPa
  • 18-01-2019 23:00:00 | 9.30°C | Sur |9.00 km/h | 89.00% | 1013.30 hPa
  • 18-01-2019 22:00:00 | 9.00°C | Sudoeste |3.00 km/h | 92.00% | 1013.10 hPa
  • 18-01-2019 21:00:00 | 9.30°C | Sudoeste |8.00 km/h | 93.00% | 1013.30 hPa
  • 18-01-2019 20:00:00 | 10.50°C | Oeste |3.00 km/h | 80.00% | 1012.60 hPa
  • 18-01-2019 19:00:00 | 10.50°C | Sur |6.00 km/h | 76.00% | 1012.10 hPa
  • 18-01-2019 18:00:00 | 10.30°C | Sur |6.00 km/h | 79.00% | 1012.30 hPa
  • 18-01-2019 17:00:00 | 10.60°C | Sur |7.00 km/h | 76.00% | 1012.70 hPa
  • 18-01-2019 16:00:00 | 12.00°C | Sudoeste |4.00 km/h | 59.00% | 1012.90 hPa
  • 18-01-2019 15:00:00 | 12.00°C | Oeste |7.00 km/h | 56.00% | 1013.30 hPa
  • 18-01-2019 14:00:00 | 11.40°C | Oeste |8.00 km/h | 61.00% | 1014.10 hPa
  • 18-01-2019 13:00:00 | 11.00°C | Sudoeste |5.00 km/h | 66.00% | 1015.00 hPa
  • 18-01-2019 12:00:00 | 9.80°C | Sur |5.00 km/h | 70.00% | 1015.60 hPa
  • 18-01-2019 11:00:00 | 8.30°C | Sudoeste |4.00 km/h | 76.00% | 1016.00 hPa
  • 18-01-2019 10:00:00 | 6.90°C | Sur |5.00 km/h | 81.00% | 1016.00 hPa
  • 18-01-2019 09:00:00 | 5.40°C | Oeste |3.00 km/h | 97.00% | 1016.30 hPa

    • Las mejores playas de Asturias.

      Mapas, coordenadas GPS, viento, marea, noticias de Asturias, fotos y más relacionadas con el mundo Surf..
      https://surf-asturias.com